createdAt,value
2019-03-17T00:00:01.794Z,60.38
2019-03-17T00:02:35.353Z,60.52
2019-03-17T00:05:08.397Z,62.60
2019-03-17T00:07:41.124Z,60.90
2019-03-17T00:10:13.453Z,61.92
2019-03-17T00:12:46.068Z,62.65
2019-03-17T00:15:18.554Z,62.20
2019-03-17T00:17:51.208Z,60.28
2019-03-17T00:20:23.736Z,60.98
2019-03-17T00:22:56.779Z,61.50
2019-03-17T00:25:29.317Z,61.02
2019-03-17T00:28:01.831Z,59.20
2019-03-17T00:30:35.031Z,59.38
2019-03-17T00:33:07.369Z,60.70
2019-03-17T00:35:39.619Z,56.73
2019-03-17T00:38:12.063Z,56.28
2019-03-17T00:40:44.740Z,54.93
2019-03-17T00:43:18.387Z,52.83
2019-03-17T00:45:51.049Z,56.18
2019-03-17T00:48:23.921Z,56.13
2019-03-17T00:50:56.482Z,55.23
2019-03-17T00:53:29.152Z,55.30
2019-03-17T00:56:01.643Z,55.60
2019-03-17T00:58:37.099Z,55.40
2019-03-17T01:01:09.491Z,54.73
2019-03-17T01:03:42.358Z,54.20
2019-03-17T01:06:14.790Z,54.70
2019-03-17T01:08:47.255Z,61.48
2019-03-17T01:11:19.801Z,56.65
2019-03-17T01:13:52.787Z,52.35
2019-03-17T01:16:25.118Z,49.90
2019-03-17T01:18:58.016Z,51.68
2019-03-17T01:21:30.466Z,52.13
2019-03-17T01:24:03.628Z,49.30
2019-03-17T01:26:36.420Z,50.05
2019-03-17T01:29:08.946Z,47.67
2019-03-17T01:31:41.810Z,46.18
2019-03-17T01:34:14.700Z,46.28
2019-03-17T01:37:07.170Z,47.00
2019-03-17T01:39:40.143Z,43.20
2019-03-17T01:42:12.829Z,42.67
2019-03-17T01:44:45.801Z,41.83
2019-03-17T01:47:18.541Z,42.85
2019-03-17T01:49:52.077Z,40.65
2019-03-17T01:52:25.073Z,43.65
2019-03-17T01:54:58.275Z,44.50
2019-03-17T01:57:31.589Z,41.63
2019-03-17T02:00:04.235Z,42.40
2019-03-17T02:02:37.509Z,41.28
2019-03-17T02:05:21.403Z,39.00
2019-03-17T02:07:46.430Z,38.42
2019-03-17T02:10:19.283Z,39.63
2019-03-17T02:13:11.659Z,40.58
2019-03-17T02:15:44.466Z,39.33
2019-03-17T02:18:18.111Z,41.88
2019-03-17T02:20:51.413Z,39.85
2019-03-17T02:23:24.162Z,39.13
2019-03-17T02:25:56.832Z,41.20
2019-03-17T02:28:29.927Z,40.60
2019-03-17T02:31:03.254Z,40.25
2019-03-17T02:33:35.800Z,38.58
2019-03-17T02:36:08.413Z,39.90
2019-03-17T02:38:41.604Z,42.05
2019-03-17T02:41:14.796Z,40.25
2019-03-17T02:43:47.068Z,40.50
2019-03-17T02:46:20.169Z,39.85
2019-03-17T02:48:52.658Z,37.10
2019-03-17T02:51:25.526Z,36.53
2019-03-17T02:53:58.320Z,36.13
2019-03-17T02:56:30.815Z,38.13
2019-03-17T02:59:03.498Z,37.00
2019-03-17T03:01:36.120Z,38.55
2019-03-17T03:04:09.031Z,36.05
2019-03-17T03:06:41.566Z,37.20
2019-03-17T03:09:14.255Z,35.78
2019-03-17T03:11:46.967Z,34.98
2019-03-17T03:14:19.915Z,36.60
2019-03-17T03:16:52.348Z,35.52
2019-03-17T03:19:24.791Z,35.48
2019-03-17T03:21:57.725Z,36.55
2019-03-17T03:24:30.027Z,36.77
2019-03-17T03:27:02.539Z,35.95
2019-03-17T03:29:34.854Z,35.70
2019-03-17T03:32:07.439Z,35.10
2019-03-17T03:34:39.670Z,35.73
2019-03-17T03:37:12.021Z,34.85
2019-03-17T03:39:44.699Z,33.13
2019-03-17T03:42:17.100Z,35.50
2019-03-17T03:44:49.901Z,34.55
2019-03-17T03:47:22.912Z,38.92
2019-03-17T03:49:57.135Z,37.65
2019-03-17T03:52:29.873Z,36.53
2019-03-17T03:55:02.447Z,37.30
2019-03-17T03:57:34.729Z,42.23
2019-03-17T04:00:09.591Z,39.35
2019-03-17T04:02:42.089Z,39.98
2019-03-17T04:05:14.991Z,38.67
2019-03-17T04:07:47.688Z,38.58
2019-03-17T04:10:21.721Z,36.83
2019-03-17T04:12:54.100Z,39.85
2019-03-17T04:15:26.615Z,37.53
2019-03-17T04:17:59.018Z,39.42
2019-03-17T04:20:31.590Z,40.75
2019-03-17T04:23:04.143Z,39.23
2019-03-17T04:25:36.437Z,39.70
2019-03-17T04:28:08.753Z,38.05
2019-03-17T04:30:41.415Z,37.23
2019-03-17T04:33:13.891Z,39.13
2019-03-17T04:35:46.392Z,37.25
2019-03-17T04:38:20.146Z,38.50
2019-03-17T04:40:52.991Z,39.30
2019-03-17T04:43:25.588Z,38.20
2019-03-17T04:45:58.370Z,37.85
2019-03-17T04:48:31.074Z,40.45
2019-03-17T04:51:03.661Z,40.45
2019-03-17T04:53:35.962Z,38.30
2019-03-17T04:56:08.972Z,35.65
2019-03-17T04:58:41.066Z,37.33
2019-03-17T05:01:13.917Z,38.58
2019-03-17T05:03:46.765Z,35.68
2019-03-17T05:06:19.762Z,36.58
2019-03-17T05:08:52.150Z,36.10
2019-03-17T05:11:24.572Z,38.02
2019-03-17T05:13:57.140Z,37.13
2019-03-17T05:16:29.697Z,37.93
2019-03-17T05:19:02.522Z,37.00
2019-03-17T05:21:34.841Z,37.63
2019-03-17T05:24:07.368Z,36.95
2019-03-17T05:26:39.894Z,40.03
2019-03-17T05:29:12.787Z,39.67
2019-03-17T05:31:45.122Z,38.88
2019-03-17T05:34:17.720Z,39.42
2019-03-17T05:36:50.062Z,41.25
2019-03-17T05:39:22.487Z,42.55
2019-03-17T05:41:55.108Z,41.65
2019-03-17T05:44:27.884Z,41.08
2019-03-17T05:47:00.405Z,42.08
2019-03-17T05:49:33.081Z,40.73
2019-03-17T05:52:05.945Z,43.70
2019-03-17T05:54:38.196Z,42.80
2019-03-17T05:57:18.093Z,41.50
2019-03-17T05:59:50.310Z,41.37
2019-03-17T06:02:39.175Z,40.95
2019-03-17T06:05:11.796Z,43.08
2019-03-17T06:07:44.348Z,41.15
2019-03-17T06:10:16.978Z,42.75
2019-03-17T06:12:49.562Z,42.38
2019-03-17T06:15:22.111Z,43.30
2019-03-17T06:17:54.513Z,43.40
2019-03-17T06:20:27.157Z,43.20
2019-03-17T06:23:00.118Z,43.85
2019-03-17T06:25:51.877Z,42.55
2019-03-17T06:28:24.196Z,41.55
2019-03-17T06:31:16.271Z,43.70
2019-03-17T06:33:48.933Z,45.08
2019-03-17T06:36:21.446Z,43.63
2019-03-17T06:38:53.730Z,44.13
2019-03-17T06:41:26.383Z,44.50
2019-03-17T06:43:58.821Z,42.88
2019-03-17T06:46:31.425Z,44.83
2019-03-17T06:49:04.071Z,45.10
2019-03-17T06:51:36.629Z,46.75
2019-03-17T06:54:09.377Z,44.08
2019-03-17T06:56:42.430Z,44.08
2019-03-17T06:59:27.039Z,43.85
2019-03-17T07:02:00.015Z,44.67
2019-03-17T07:04:32.606Z,46.53
2019-03-17T07:07:05.276Z,46.35
2019-03-17T07:09:37.962Z,46.10
2019-03-17T07:12:10.493Z,45.52
2019-03-17T07:14:42.963Z,44.42
2019-03-17T07:17:15.840Z,45.92
2019-03-17T07:19:48.575Z,45.75
2019-03-17T07:22:21.306Z,46.37
2019-03-17T07:24:53.737Z,46.37
2019-03-17T07:27:26.078Z,46.23
2019-03-17T07:29:58.656Z,45.67
2019-03-17T07:32:31.324Z,45.63
2019-03-17T07:35:04.161Z,45.58
2019-03-17T07:37:36.477Z,47.13
2019-03-17T07:40:11.487Z,46.05
2019-03-17T07:42:44.349Z,46.05
2019-03-17T07:45:16.991Z,46.55
2019-03-17T07:47:49.650Z,45.00
2019-03-17T07:50:22.191Z,46.35
2019-03-17T07:52:54.674Z,43.83
2019-03-17T07:55:38.597Z,46.28
2019-03-17T07:58:11.216Z,46.05
2019-03-17T08:00:43.768Z,45.50
2019-03-17T08:03:16.436Z,45.95
2019-03-17T08:05:49.402Z,44.88
2019-03-17T08:08:21.979Z,45.90
2019-03-17T08:10:54.645Z,45.75
2019-03-17T08:13:28.147Z,45.88
2019-03-17T08:16:01.851Z,46.45
2019-03-17T08:18:34.168Z,45.43
2019-03-17T08:21:06.933Z,45.30
2019-03-17T08:23:39.649Z,46.58
2019-03-17T08:26:12.373Z,43.80
2019-03-17T08:28:45.300Z,44.73
2019-03-17T08:31:18.060Z,48.00
2019-03-17T08:33:50.464Z,44.73
2019-03-17T08:36:23.152Z,47.48
2019-03-17T08:38:55.471Z,45.92
2019-03-17T08:41:28.031Z,45.60
2019-03-17T08:44:00.442Z,47.20
2019-03-17T08:46:33.294Z,47.23
2019-03-17T08:49:06.294Z,44.55
2019-03-17T08:51:38.781Z,45.50
2019-03-17T08:54:11.657Z,46.80
2019-03-17T08:56:43.820Z,45.43
2019-03-17T08:59:16.576Z,46.60
2019-03-17T09:01:49.249Z,45.03
2019-03-17T09:04:21.845Z,45.67
2019-03-17T09:06:54.215Z,47.13
2019-03-17T09:09:26.805Z,46.02
2019-03-17T09:11:59.311Z,46.15
2019-03-17T09:14:32.025Z,47.55
2019-03-17T09:17:13.807Z,45.63
2019-03-17T09:19:38.398Z,46.90
2019-03-17T09:22:10.846Z,47.40
2019-03-17T09:24:43.072Z,45.90
2019-03-17T09:27:15.656Z,45.75
2019-03-17T09:29:48.434Z,46.85
2019-03-17T09:32:20.928Z,47.65
2019-03-17T09:34:53.602Z,46.53
2019-03-17T09:37:27.213Z,46.68
2019-03-17T09:39:59.720Z,47.27
2019-03-17T09:42:32.085Z,47.62
2019-03-17T09:45:04.959Z,47.33
2019-03-17T09:47:37.178Z,47.70
2019-03-17T09:50:12.559Z,47.05
2019-03-17T09:52:45.692Z,47.95
2019-03-17T09:55:19.028Z,47.83
2019-03-17T09:57:51.937Z,47.48
2019-03-17T10:00:25.417Z,48.20
2019-03-17T10:02:58.166Z,48.75
2019-03-17T10:05:31.086Z,47.35
2019-03-17T10:08:03.679Z,49.77
2019-03-17T10:10:36.357Z,48.52
2019-03-17T10:13:08.998Z,47.48
2019-03-17T10:15:41.261Z,48.25
2019-03-17T10:18:14.113Z,47.48
2019-03-17T10:20:46.270Z,51.30
2019-03-17T10:23:19.686Z,50.28
2019-03-17T10:25:51.976Z,51.23
2019-03-17T10:28:24.352Z,50.83
2019-03-17T10:30:56.778Z,49.40
2019-03-17T10:33:29.489Z,50.63
2019-03-17T10:36:01.786Z,49.08
2019-03-17T10:38:34.502Z,48.23
2019-03-17T10:41:07.164Z,50.03
2019-03-17T10:43:39.908Z,51.28
2019-03-17T10:46:12.143Z,51.95
2019-03-17T10:48:44.808Z,50.40
2019-03-17T10:51:17.244Z,51.18
2019-03-17T10:53:49.582Z,50.78
2019-03-17T10:56:21.984Z,51.92
2019-03-17T10:58:54.309Z,51.88
2019-03-17T11:01:26.629Z,50.23
2019-03-17T11:03:59.393Z,51.53
2019-03-17T11:06:32.003Z,50.10
2019-03-17T11:09:04.753Z,51.35
2019-03-17T11:11:37.681Z,52.05
2019-03-17T11:14:10.093Z,50.75
2019-03-17T11:16:42.353Z,53.00
2019-03-17T11:19:14.940Z,51.95
2019-03-17T11:21:47.375Z,54.35
2019-03-17T11:24:19.877Z,54.50
2019-03-17T11:26:52.279Z,55.15
2019-03-17T11:29:24.783Z,55.75
2019-03-17T11:31:56.956Z,54.77
2019-03-17T11:34:29.409Z,59.67
2019-03-17T11:37:01.687Z,63.17
2019-03-17T11:39:37.929Z,64.65
2019-03-17T11:42:07.996Z,67.78
2019-03-17T11:44:40.928Z,62.90
2019-03-17T11:47:13.660Z,93.65
2019-03-17T11:49:46.336Z,59.90
2019-03-17T11:52:18.862Z,58.33
2019-03-17T11:54:51.412Z,57.53
2019-03-17T11:57:23.702Z,58.20
2019-03-17T11:59:56.365Z,60.58
2019-03-17T12:02:28.780Z,60.67
2019-03-17T12:05:01.346Z,58.58
2019-03-17T12:07:33.811Z,54.70
2019-03-17T12:10:09.039Z,53.78
2019-03-17T12:12:41.530Z,54.60
2019-03-17T12:15:16.703Z,52.75
2019-03-17T12:17:50.039Z,53.02
2019-03-17T12:20:23.190Z,53.85
2019-03-17T12:22:55.310Z,53.60
2019-03-17T12:25:27.753Z,53.87
2019-03-17T12:28:00.440Z,53.10
2019-03-17T12:30:33.402Z,54.18
2019-03-17T12:33:05.910Z,52.93
2019-03-17T12:35:38.407Z,55.15
2019-03-17T12:38:10.646Z,55.40
2019-03-17T12:40:43.184Z,60.38
2019-03-17T12:43:18.056Z,58.45
2019-03-17T12:45:50.724Z,56.60
2019-03-17T12:48:23.108Z,56.00
2019-03-17T12:50:55.555Z,54.88
2019-03-17T12:53:27.934Z,56.95
2019-03-17T12:56:00.511Z,56.02
2019-03-17T12:58:33.068Z,56.10
2019-03-17T13:01:05.605Z,56.68
2019-03-17T13:03:38.773Z,58.78
2019-03-17T13:06:12.593Z,59.55
2019-03-17T13:08:45.011Z,60.28
2019-03-17T13:11:18.552Z,61.02
2019-03-17T13:13:51.219Z,58.45
2019-03-17T13:16:23.749Z,60.48
2019-03-17T13:18:56.220Z,61.08
2019-03-17T13:21:28.964Z,59.98
2019-03-17T13:24:01.659Z,61.33
2019-03-17T13:26:34.150Z,61.23
2019-03-17T13:29:07.135Z,59.63
2019-03-17T13:31:39.469Z,59.98
2019-03-17T13:34:12.167Z,59.45
2019-03-17T13:36:46.562Z,60.70
2019-03-17T13:39:18.655Z,61.18
2019-03-17T13:41:51.086Z,62.58
2019-03-17T13:44:23.487Z,62.15
2019-03-17T13:46:56.674Z,62.95
2019-03-17T13:49:29.114Z,62.88
2019-03-17T13:52:01.534Z,62.05
2019-03-17T13:54:34.383Z,62.65
2019-03-17T13:57:06.848Z,62.58
2019-03-17T13:59:39.081Z,64.00
2019-03-17T14:02:11.520Z,68.33
2019-03-17T14:04:44.219Z,68.52
2019-03-17T14:07:17.034Z,69.37
2019-03-17T14:09:49.640Z,69.40
2019-03-17T14:12:22.057Z,67.70
2019-03-17T14:14:54.397Z,68.62
2019-03-17T14:17:26.811Z,72.35
2019-03-17T14:19:59.287Z,75.00
2019-03-17T14:22:32.025Z,73.47
2019-03-17T14:25:04.379Z,75.20
2019-03-17T14:27:36.946Z,79.10
2019-03-17T14:30:11.388Z,73.22
2019-03-17T14:32:45.138Z,69.92
2019-03-17T14:35:21.127Z,71.35
2019-03-17T14:37:53.116Z,74.97
2019-03-17T14:40:25.823Z,68.83
2019-03-17T14:42:58.470Z,68.42
2019-03-17T14:45:30.990Z,68.80
2019-03-17T14:48:03.480Z,178.47
2019-03-17T14:50:36.230Z,244.50
2019-03-17T14:53:09.069Z,72.65
2019-03-17T14:55:41.562Z,75.83
2019-03-17T14:58:13.930Z,73.52
2019-03-17T15:00:46.161Z,76.92
2019-03-17T15:03:18.671Z,78.25
2019-03-17T15:05:51.404Z,75.75
2019-03-17T15:08:24.122Z,76.67
2019-03-17T15:11:05.160Z,75.62
2019-03-17T15:13:30.641Z,74.87
2019-03-17T15:16:03.359Z,72.60
2019-03-17T15:18:48.425Z,73.50
2019-03-17T15:21:21.025Z,73.45
2019-03-17T15:23:53.573Z,73.40
2019-03-17T15:26:26.576Z,70.95
2019-03-17T15:28:59.123Z,71.20
2019-03-17T15:31:31.548Z,77.53
2019-03-17T15:34:04.090Z,94.20
2019-03-17T15:36:36.481Z,78.95
2019-03-17T15:39:09.420Z,73.72
2019-03-17T15:41:42.018Z,76.40
2019-03-17T15:44:14.365Z,74.17
2019-03-17T15:46:46.547Z,79.92
2019-03-17T15:49:19.052Z,76.28
2019-03-17T15:51:51.459Z,74.58
2019-03-17T15:54:23.932Z,69.42
2019-03-17T15:56:56.601Z,73.50
2019-03-17T15:59:29.230Z,74.72
2019-03-17T16:02:01.754Z,75.00
2019-03-17T16:04:34.435Z,70.78
2019-03-17T16:07:06.787Z,71.62
2019-03-17T16:09:39.389Z,73.10
2019-03-17T16:12:11.801Z,73.45
2019-03-17T16:14:44.433Z,74.80
2019-03-17T16:17:16.808Z,72.78
2019-03-17T16:19:49.448Z,75.25
2019-03-17T16:22:21.885Z,74.53
2019-03-17T16:24:54.627Z,74.10
2019-03-17T16:27:27.181Z,73.50
2019-03-17T16:30:00.361Z,76.07
2019-03-17T16:32:33.167Z,75.25
2019-03-17T16:35:06.098Z,73.35
2019-03-17T16:37:38.446Z,70.67
2019-03-17T16:40:13.399Z,75.80
2019-03-17T16:42:46.076Z,74.92
2019-03-17T16:45:20.309Z,76.50
2019-03-17T16:47:53.468Z,78.12
2019-03-17T16:50:26.592Z,80.67
2019-03-17T16:52:59.247Z,81.55
2019-03-17T16:55:31.888Z,80.03
2019-03-17T16:58:04.878Z,84.67
2019-03-17T17:00:37.693Z,84.92
2019-03-17T17:03:11.111Z,82.78
2019-03-17T17:05:43.687Z,81.15
2019-03-17T17:08:16.230Z,80.15
2019-03-17T17:10:50.589Z,81.67
2019-03-17T17:13:22.118Z,81.82
2019-03-17T17:15:54.546Z,83.47
2019-03-17T17:18:26.955Z,79.60
2019-03-17T17:20:59.432Z,82.20
2019-03-17T17:23:32.141Z,82.08
2019-03-17T17:26:04.932Z,79.77
2019-03-17T17:28:37.359Z,79.05
2019-03-17T17:31:09.889Z,81.25
2019-03-17T17:33:42.531Z,79.42
2019-03-17T17:36:14.870Z,80.20
2019-03-17T17:38:47.323Z,82.22
2019-03-17T17:41:19.800Z,80.85
2019-03-17T17:43:52.619Z,81.30
2019-03-17T17:46:24.999Z,80.20
2019-03-17T17:48:57.492Z,79.60
2019-03-17T17:51:30.034Z,78.75
2019-03-17T17:54:02.712Z,80.72
2019-03-17T17:56:35.193Z,82.72
2019-03-17T17:59:07.766Z,80.90
2019-03-17T18:01:41.056Z,82.33
2019-03-17T18:04:13.777Z,81.08
2019-03-17T18:06:46.110Z,82.15
2019-03-17T18:09:19.942Z,79.58
2019-03-17T18:11:52.105Z,77.75
2019-03-17T18:14:24.923Z,79.17
2019-03-17T18:16:57.636Z,77.60
2019-03-17T18:19:30.457Z,79.30
2019-03-17T18:22:02.676Z,79.67
2019-03-17T18:24:35.119Z,78.70
2019-03-17T18:27:07.494Z,75.95
2019-03-17T18:29:39.955Z,78.20
2019-03-17T18:32:12.469Z,77.75
2019-03-17T18:34:45.124Z,80.17
2019-03-17T18:37:17.751Z,83.87
2019-03-17T18:39:50.138Z,82.95
2019-03-17T18:42:32.664Z,79.65
2019-03-17T18:44:56.817Z,82.42
2019-03-17T18:47:29.502Z,82.02
2019-03-17T18:50:02.230Z,82.12
2019-03-17T18:52:34.640Z,81.63
2019-03-17T18:55:09.647Z,80.60
2019-03-17T18:57:42.355Z,82.67
2019-03-17T19:00:17.268Z,80.15
2019-03-17T19:02:50.080Z,88.58
2019-03-17T19:05:22.907Z,83.60
2019-03-17T19:07:55.386Z,87.65
2019-03-17T19:10:27.951Z,86.10
2019-03-17T19:13:03.667Z,85.77
2019-03-17T19:15:34.689Z,89.32
2019-03-17T19:18:07.593Z,87.37
2019-03-17T19:20:40.288Z,87.60
2019-03-17T19:23:12.635Z,85.40
2019-03-17T19:25:45.397Z,83.70
2019-03-17T19:28:17.814Z,86.37
2019-03-17T19:30:50.479Z,88.15
2019-03-17T19:33:23.136Z,88.65
2019-03-17T19:35:55.858Z,89.32
2019-03-17T19:38:28.195Z,84.72
2019-03-17T19:41:02.071Z,90.03
2019-03-17T19:43:34.808Z,85.35
2019-03-17T19:46:07.516Z,86.28
2019-03-17T19:48:40.017Z,87.40
2019-03-17T19:51:12.653Z,87.88
2019-03-17T19:53:44.965Z,88.05
2019-03-17T19:56:17.600Z,91.85
2019-03-17T19:58:49.965Z,86.15
2019-03-17T20:01:22.532Z,88.15
2019-03-17T20:03:55.963Z,87.67
2019-03-17T20:06:28.684Z,92.33
2019-03-17T20:09:01.049Z,93.40
2019-03-17T20:11:34.101Z,94.10
2019-03-17T20:14:06.526Z,93.70
2019-03-17T20:16:38.922Z,95.85
2019-03-17T20:19:11.527Z,95.70
2019-03-17T20:21:43.813Z,94.28
2019-03-17T20:24:16.588Z,89.65
2019-03-17T20:26:48.890Z,86.40
2019-03-17T20:29:21.526Z,87.30
2019-03-17T20:31:53.746Z,88.37
2019-03-17T20:34:26.366Z,90.50
2019-03-17T20:36:58.757Z,93.50
2019-03-17T20:39:31.684Z,91.82
2019-03-17T20:42:04.132Z,93.45
2019-03-17T20:44:36.413Z,91.35
2019-03-17T20:47:08.897Z,95.47
2019-03-17T20:49:41.506Z,96.10
2019-03-17T20:52:14.212Z,98.90
2019-03-17T20:54:46.947Z,98.72
2019-03-17T20:57:19.303Z,99.70
2019-03-17T20:59:51.771Z,97.50
2019-03-17T21:02:24.171Z,100.87
2019-03-17T21:04:56.712Z,99.58
2019-03-17T21:07:29.129Z,96.15
2019-03-17T21:10:01.953Z,98.95
2019-03-17T21:12:34.620Z,98.37
2019-03-17T21:15:09.711Z,96.97
2019-03-17T21:17:42.456Z,99.20
2019-03-17T21:20:16.834Z,102.47
2019-03-17T21:22:49.121Z,101.22
2019-03-17T21:25:21.750Z,99.52
2019-03-17T21:27:54.436Z,100.02
2019-03-17T21:30:29.445Z,101.62
2019-03-17T21:33:01.984Z,103.12
2019-03-17T21:35:34.478Z,101.55
2019-03-17T21:38:07.544Z,96.90
2019-03-17T21:40:56.137Z,99.70
2019-03-17T21:43:13.966Z,101.58
2019-03-17T21:45:46.166Z,105.90
2019-03-17T21:48:18.848Z,102.72
2019-03-17T21:50:51.298Z,103.65
2019-03-17T21:53:23.678Z,105.75
2019-03-17T21:55:56.091Z,104.15
2019-03-17T21:58:28.520Z,100.27
2019-03-17T22:01:00.760Z,104.00
2019-03-17T22:03:33.629Z,100.85
2019-03-17T22:06:06.301Z,102.72
2019-03-17T22:08:39.180Z,104.65
2019-03-17T22:11:11.799Z,102.47
2019-03-17T22:13:44.234Z,102.20
2019-03-17T22:16:16.850Z,102.65
2019-03-17T22:18:49.604Z,103.00
2019-03-17T22:21:22.117Z,98.80
2019-03-17T22:23:54.562Z,100.55
2019-03-17T22:26:27.149Z,101.60
2019-03-17T22:28:59.446Z,100.97
2019-03-17T22:31:32.012Z,100.25
2019-03-17T22:34:04.673Z,101.97
2019-03-17T22:36:37.496Z,100.90
2019-03-17T22:39:11.411Z,102.47
2019-03-17T22:41:44.114Z,104.00
2019-03-17T22:44:24.237Z,102.70
2019-03-17T22:46:50.435Z,106.58
2019-03-17T22:49:22.733Z,106.92
2019-03-17T22:51:55.469Z,105.22
2019-03-17T22:54:28.052Z,101.02
2019-03-17T22:57:01.179Z,106.20
2019-03-17T22:59:33.571Z,98.95
2019-03-17T23:02:06.402Z,103.92
2019-03-17T23:04:38.729Z,103.97
2019-03-17T23:07:11.498Z,106.25
2019-03-17T23:09:43.988Z,110.60
2019-03-17T23:12:16.379Z,104.60
2019-03-17T23:14:48.699Z,106.43
2019-03-17T23:17:21.351Z,108.03
2019-03-17T23:19:53.871Z,108.55
2019-03-17T23:22:26.878Z,106.70
2019-03-17T23:24:59.301Z,103.62
2019-03-17T23:27:31.706Z,107.72
2019-03-17T23:30:04.128Z,108.83
2019-03-17T23:32:37.803Z,107.25
2019-03-17T23:35:10.423Z,106.75
2019-03-17T23:37:44.146Z,104.83
2019-03-17T23:40:18.148Z,106.97
2019-03-17T23:42:50.775Z,108.12
2019-03-17T23:45:23.114Z,106.17
2019-03-17T23:47:55.705Z,105.75
2019-03-17T23:50:28.101Z,107.03
2019-03-17T23:53:00.734Z,106.40
2019-03-17T23:55:33.045Z,102.87
2019-03-17T23:58:05.773Z,104.83
